Time;durP1;ratioP1;P1;durP2;ratioP2;P2;SDS_P1;SDS_P2;PMS_P1;PMS_P2;Temp;Humidity;BMP_temperature;BMP_pressure;BME280_temperature;BME280_humidity;BME280_pressure;Samples;Min_cycle;Max_cycle;Signal;HPM_P1;HPM_P2
2022/02/04 00:24:46;;;;;;;30.40;14.80;;;;;;;-4.64;74.40;98100.30;1723407;83;21050;-73
2022/02/04 00:27:18;;;;;;;28.17;13.10;;;;;;;-4.61;74.14;98099.52;1713682;83;21407;-74
2022/02/04 00:30:07;;;;;;;28.65;12.93;;;;;;;-4.60;74.00;98103.00;1695878;83;21457;-73
2022/02/04 00:32:13;;;;;;;30.57;13.98;;;;;;;-4.61;74.28;98094.35;1696774;83;21072;-73
2022/02/04 00:34:50;;;;;;;34.35;14.05;;;;;;;-4.66;74.84;98096.80;1715105;83;21516;-74
2022/02/04 00:39:43;;;;;;;33.02;14.15;;;;;;;-4.67;74.32;98082.52;1720962;83;21434;-74
2022/02/04 00:42:08;;;;;;;33.40;13.85;;;;;;;-4.62;74.47;98090.45;1716786;82;22350;-74
2022/02/04 00:44:32;;;;;;;31.20;13.35;;;;;;;-4.64;74.27;98082.20;1697369;82;21020;-74
2022/02/04 00:47:05;;;;;;;26.55;13.15;;;;;;;-4.59;74.34;98081.07;1719260;82;21402;-74
2022/02/04 00:49:51;;;;;;;27.00;12.30;;;;;;;-4.59;74.16;98084.06;1699671;83;21068;-74
2022/02/04 00:52:14;;;;;;;33.58;13.68;;;;;;;-4.59;74.21;98089.23;1721583;81;21003;-74
2022/02/04 00:57:15;;;;;;;23.77;11.03;;;;;;;-4.54;74.31;98079.52;1712244;83;21534;-74
2022/02/04 01:26:53;;;;;;;22.15;9.55;;;;;;;-4.63;73.90;98049.47;1689105;84;21004;-74
2022/02/04 01:29:20;;;;;;;23.70;10.13;;;;;;;-4.66;73.78;98058.01;1691338;83;21037;-73
2022/02/04 01:31:48;;;;;;;23.12;9.43;;;;;;;-4.68;73.92;98049.34;1626512;87;21119;-74
2022/02/04 01:34:15;;;;;;;20.08;9.35;;;;;;;-4.66;74.08;98041.20;1652081;87;21478;-73
2022/02/04 01:36:41;;;;;;;18.52;9.23;;;;;;;-4.66;74.45;98043.78;1697622;84;21490;-73
2022/02/04 01:39:08;;;;;;;20.23;9.15;;;;;;;-4.65;74.01;98040.36;1684727;84;21044;-74
2022/02/04 01:41:34;;;;;;;16.15;7.92;;;;;;;-4.64;74.08;98043.41;1680000;84;21084;-74
2022/02/04 01:44:01;;;;;;;17.40;8.13;;;;;;;-4.59;73.89;98040.09;1696733;84;21009;-73
2022/02/04 01:46:28;;;;;;;15.83;7.65;;;;;;;-4.60;74.05;98034.46;1691578;84;21398;-74
2022/02/04 01:48:54;;;;;;;15.83;7.40;;;;;;;-4.64;73.79;98036.08;1695705;84;21036;-74
2022/02/04 01:51:21;;;;;;;21.73;9.25;;;;;;;-4.65;73.81;98036.48;1682997;84;20989;-74
2022/02/04 01:53:47;;;;;;;17.48;7.37;;;;;;;-4.69;73.78;98035.92;1688814;84;21004;-74
2022/02/04 01:56:14;;;;;;;16.62;8.05;;;;;;;-4.69;73.75;98041.09;1694194;83;21064;-74
2022/02/04 01:58:42;;;;;;;20.62;9.10;;;;;;;-4.73;73.84;98039.27;1695760;83;20961;-74
2022/02/04 02:01:08;;;;;;;16.73;8.53;;;;;;;-4.70;73.86;98033.31;1680221;84;21445;-74
2022/02/04 02:03:35;;;;;;;11.73;6.97;;;;;;;-4.69;73.98;98033.33;1680266;84;21024;-74
2022/02/04 02:06:08;;;;;;;19.95;8.45;;;;;;;-4.71;73.84;98035.41;1693372;84;21015;-74
2022/02/04 02:08:30;;;;;;;16.45;8.33;;;;;;;-4.73;73.75;98039.27;1696722;84;21033;-74
2022/02/04 02:10:57;;;;;;;18.95;8.95;;;;;;;-4.78;73.85;98033.03;1697765;83;21628;-73
2022/02/04 02:16:18;;;;;;;18.12;8.28;;;;;;;-4.78;73.74;98045.96;1689121;84;21025;-73
2022/02/04 02:43:12;;;;;;;18.20;7.70;;;;;;;-5.20;73.68;98032.97;1668792;84;21072;-74
2022/02/04 02:51:15;;;;;;;;;;;;;;;-5.27;74.08;98031.91;1713096;83;21009;-74
2022/02/04 02:59:08;;;;;;;10.40;6.33;;;;;;;-5.35;74.02;98039.80;1670202;85;21006;-74
2022/02/04 03:01:09;;;;;;;18.42;6.80;;;;;;;-5.37;74.17;98040.14;1672753;84;21021;-74
2022/02/04 03:03:36;;;;;;;11.15;6.58;;;;;;;-5.40;74.30;98043.50;1680721;84;21041;-75
2022/02/04 03:06:03;;;;;;;13.72;7.17;;;;;;;-5.41;74.24;98044.77;1677484;84;21383;-74
2022/02/04 03:08:30;;;;;;;17.85;7.12;;;;;;;-5.43;74.45;98042.13;1692917;84;21371;-74
2022/02/04 03:10:57;;;;;;;20.60;7.87;;;;;;;-5.46;74.44;98048.46;1701309;84;20991;-74
2022/02/04 03:13:27;;;;;;;20.23;9.63;;;;;;;-5.49;74.67;98045.36;1688162;84;21025;-73
2022/02/04 03:16:00;;;;;;;17.95;8.63;;;;;;;-5.48;74.53;98047.55;1652103;86;21048;-74
2022/02/04 03:18:28;;;;;;;17.82;8.33;;;;;;;-5.50;74.58;98040.14;1723193;83;21087;-74
2022/02/04 03:20:59;;;;;;;15.83;8.08;;;;;;;-5.49;74.84;98044.07;1723320;83;20990;-74
2022/02/04 03:23:24;;;;;;;15.40;7.60;;;;;;;-5.43;74.79;98045.56;1712704;83;21549;-74
2022/02/04 03:25:57;;;;;;;12.07;6.08;;;;;;;-5.44;74.67;98037.79;1719177;82;20992;-74
2022/02/04 03:28:25;;;;;;;14.93;7.22;;;;;;;-5.48;74.50;98040.66;1720191;83;22312;-74
2022/02/04 03:30:51;;;;;;;14.75;7.15;;;;;;;-5.49;74.75;98045.80;1698506;82;21048;-74
2022/02/04 03:33:20;;;;;;;15.98;7.12;;;;;;;-5.56;74.94;98046.84;1698732;82;21080;-75
2022/02/04 03:35:45;;;;;;;13.93;6.53;;;;;;;-5.57;74.81;98038.64;1694559;83;21502;-74
2022/02/04 03:38:12;;;;;;;14.83;6.72;;;;;;;-5.59;75.01;98048.05;1699977;83;21009;-74
2022/02/04 03:40:38;;;;;;;14.28;6.62;;;;;;;-5.60;74.91;98043.69;1720598;82;20997;-74
2022/02/04 03:43:05;;;;;;;12.07;6.72;;;;;;;-5.62;74.96;98047.93;1722839;83;21032;-75
2022/02/04 03:45:31;;;;;;;13.55;6.53;;;;;;;-5.61;75.17;98047.53;1721001;83;21008;-75
2022/02/04 03:47:58;;;;;;;17.80;7.10;;;;;;;-5.63;75.85;98042.70;1717236;83;21020;-75
2022/02/04 03:50:24;;;;;;;13.43;6.95;;;;;;;-5.62;75.85;98040.58;1721409;83;21027;-74
2022/02/04 03:52:51;;;;;;;15.83;6.95;;;;;;;-5.61;75.43;98038.06;1700473;82;21056;-74
2022/02/04 03:55:17;;;;;;;12.07;5.65;;;;;;;-5.59;75.26;98040.70;1707589;83;20981;-75
2022/02/04 03:57:44;;;;;;;14.40;6.17;;;;;;;-5.61;75.17;98035.91;1720658;83;20996;-75
2022/02/04 04:00:14;;;;;;;16.65;6.05;;;;;;;-5.63;74.98;98034.95;1699564;83;21647;-74
2022/02/04 04:02:46;;;;;;;16.10;6.60;;;;;;;-5.70;75.12;98022.24;1721551;82;21155;-75
2022/02/04 04:05:14;;;;;;;13.65;7.25;;;;;;;-5.72;75.06;98033.80;1721132;83;21041;-74
2022/02/04 04:07:45;;;;;;;14.45;7.22;;;;;;;-5.76;75.10;98036.23;1713825;83;21024;-75
2022/02/04 04:10:16;;;;;;;12.70;7.03;;;;;;;-5.79;75.26;98033.13;1698626;83;21457;-74
2022/02/04 04:12:40;;;;;;;19.87;7.80;;;;;;;-5.80;75.26;98027.91;1718217;83;21493;-73
2022/02/04 04:15:09;;;;;;;15.88;7.60;;;;;;;-5.80;75.31;98031.38;1722196;82;21087;-73
2022/02/04 04:17:42;;;;;;;17.57;7.67;;;;;;;-5.84;75.31;98034.67;1721595;83;21016;-73
2022/02/04 04:20:18;;;;;;;13.70;7.22;;;;;;;-5.84;75.69;98029.10;1702796;83;21020;-74
2022/02/04 04:22:45;;;;;;;14.63;7.22;;;;;;;-5.80;75.55;98026.61;1722905;83;21060;-73
2022/02/04 04:25:13;;;;;;;13.08;6.75;;;;;;;-5.80;75.50;98028.80;1713648;83;21029;-73
2022/02/04 04:27:42;;;;;;;14.65;7.70;;;;;;;-5.75;75.35;98032.81;1714158;82;21025;-73
2022/02/04 04:30:15;;;;;;;22.37;10.03;;;;;;;-5.79;75.25;98029.25;1708570;83;21016;-74
2022/02/04 04:32:44;;;;;;;32.10;13.48;;;;;;;-5.87;75.27;98027.69;1719075;82;21118;-74
2022/02/04 04:35:15;;;;;;;29.63;12.58;;;;;;;-5.92;75.17;98034.39;1719795;83;21008;-74
2022/02/04 04:37:57;;;;;;;23.02;10.82;;;;;;;-5.95;75.36;98038.14;1701606;83;21020;-73
2022/02/04 04:43:13;;;;;;;24.75;10.63;;;;;;;-6.04;75.53;98028.80;1723133;83;21067;-74
2022/02/04 04:46:34;;;;;;;24.05;9.03;;;;;;;-6.05;75.78;98041.23;1698323;83;21073;-74
2022/02/04 05:27:30;;;;;;;18.02;8.60;;;;;;;-6.15;76.38;98040.89;1695964;83;21072;-74
2022/02/04 05:29:16;;;;;;;17.55;8.50;;;;;;;-6.14;76.61;98044.36;1702176;83;21020;-74
2022/02/04 05:31:44;;;;;;;18.23;8.63;;;;;;;-6.13;76.58;98044.42;1697383;83;21064;-74
2022/02/04 05:34:14;;;;;;;21.25;9.70;;;;;;;-6.07;76.55;98041.61;1693797;83;21596;-74
2022/02/04 05:36:43;;;;;;;17.52;9.38;;;;;;;-6.03;76.61;98040.47;1712085;82;21041;-74
2022/02/04 05:39:11;;;;;;;19.00;10.10;;;;;;;-5.98;76.41;98040.20;1702481;83;21052;-73
2022/02/04 05:41:44;;;;;;;20.35;9.78;;;;;;;-5.99;76.56;98036.27;1722976;83;21481;-73
2022/02/04 05:44:10;;;;;;;19.42;9.38;;;;;;;-5.99;76.50;98035.86;1705429;82;21032;-73
2022/02/04 05:46:45;;;;;;;18.57;9.68;;;;;;;-5.95;76.50;98027.81;1695543;83;21148;-73
2022/02/04 05:49:03;;;;;;;20.23;10.03;;;;;;;-5.95;76.43;98038.14;1719318;82;21035;-74
2022/02/04 05:51:45;;;;;;;16.00;8.95;;;;;;;-5.93;76.44;98040.38;1721128;83;21016;-74
2022/02/04 05:54:14;;;;;;;21.70;9.63;;;;;;;-5.93;76.42;98041.67;1719958;83;21473;-74
2022/02/04 05:59:34;;;;;;;19.52;8.90;;;;;;;-5.96;76.67;98045.02;1696158;83;21429;-74
2022/02/04 06:02:00;;;;;;;19.42;8.88;;;;;;;-5.95;76.52;98048.45;1691659;83;21048;-74
2022/02/04 06:04:36;;;;;;;19.60;9.25;;;;;;;-5.93;76.59;98043.36;1710919;81;21004;-74
2022/02/04 06:12:40;;;;;;;18.20;9.58;;;;;;;-5.93;76.86;98054.58;1722398;83;21442;-74
2022/02/04 06:14:56;;;;;;;21.55;9.40;;;;;;;-5.88;77.16;98050.46;1721516;82;21457;-73
2022/02/04 06:22:49;;;;;;;19.45;9.83;;;;;;;-5.74;77.32;98056.11;1722622;83;21059;-74
2022/02/04 06:25:14;;;;;;;23.92;11.88;;;;;;;-5.68;77.09;98066.20;1709304;83;21020;-74
2022/02/04 06:27:42;;;;;;;36.88;16.65;;;;;;;-5.62;76.79;98068.98;1702108;83;21457;-75
2022/02/04 06:30:12;;;;;;;29.87;14.20;;;;;;;-5.59;76.76;98072.58;1714257;83;21468;-74
2022/02/04 06:32:39;;;;;;;40.00;16.93;;;;;;;-5.54;76.82;98069.26;1708946;83;20985;-74
2022/02/04 06:35:08;;;;;;;38.40;18.10;;;;;;;-5.47;76.80;98064.80;1703160;83;21020;-74
2022/02/04 06:37:35;;;;;;;40.05;18.77;;;;;;;-5.39;76.76;98066.35;1715741;83;21444;-74
2022/02/04 06:40:04;;;;;;;39.67;20.08;;;;;;;-5.32;76.68;98060.16;1719024;82;20978;-74
2022/02/04 06:42:30;;;;;;;41.70;19.92;;;;;;;-5.24;76.70;98060.42;1716772;83;21021;-74
2022/02/04 06:45:00;;;;;;;44.35;21.62;;;;;;;-5.18;76.85;98058.47;1700752;83;20976;-75
2022/02/04 06:47:28;;;;;;;45.45;21.77;;;;;;;-5.08;76.84;98058.34;1718929;83;21023;-74
2022/02/04 06:49:55;;;;;;;46.65;20.92;;;;;;;-5.02;76.65;98058.98;1701898;83;21019;-75
2022/02/04 06:52:22;;;;;;;49.67;23.92;;;;;;;-4.99;76.55;98062.53;1704436;83;21052;-74
2022/02/04 06:54:49;;;;;;;51.02;23.05;;;;;;;-4.92;76.80;98051.98;1701984;83;21062;-74
2022/02/04 06:57:16;;;;;;;47.15;22.73;;;;;;;-4.88;76.51;98064.20;1709085;83;21130;-74
2022/02/04 06:59:44;;;;;;;49.13;23.00;;;;;;;-4.82;76.51;98051.89;1702812;83;21043;-74
2022/02/04 07:02:11;;;;;;;46.68;22.82;;;;;;;-4.80;76.28;98056.69;1720523;83;21020;-74
2022/02/04 07:04:37;;;;;;;47.90;23.38;;;;;;;-4.75;76.48;98061.59;1720266;82;21035;-74
2022/02/04 07:07:05;;;;;;;47.50;22.58;;;;;;;-4.67;76.31;98059.25;1720337;83;21052;-74
2022/02/04 07:09:55;;;;;;;45.75;23.02;;;;;;;-4.61;76.34;98056.84;1719856;83;21051;-75
2022/02/04 07:14:46;;;;;;;46.13;22.10;;;;;;;-4.48;76.48;98055.95;1720315;83;21548;-74
2022/02/04 07:17:16;;;;;;;45.58;23.73;;;;;;;-4.46;76.36;98053.88;1703498;82;21028;-73
2022/02/04 07:19:46;;;;;;;44.27;22.87;;;;;;;-4.41;76.07;98050.13;1694351;84;21093;-74
2022/02/04 07:22:19;;;;;;;50.00;22.70;;;;;;;-4.35;76.17;98047.75;1681276;84;21069;-74
2022/02/04 07:24:50;;;;;;;52.08;23.55;;;;;;;-4.32;75.47;98043.09;1687668;84;21031;-73
2022/02/04 07:27:18;;;;;;;52.25;24.15;;;;;;;-4.32;75.85;98041.79;1686655;84;21426;-74
2022/02/04 07:29:47;;;;;;;43.17;22.75;;;;;;;-4.25;76.09;98039.43;1684190;84;21016;-73
2022/02/04 07:32:20;;;;;;;40.83;22.00;;;;;;;-4.20;76.08;98034.81;1696000;84;21000;-74
2022/02/04 07:42:41;;;;;;;42.00;20.08;;;;;;;-4.09;75.89;98029.94;1688510;84;21013;-75
2022/02/04 07:45:08;;;;;;;50.43;28.02;;;;;;;-4.04;75.57;98025.77;1676616;84;21080;-76
2022/02/04 07:47:36;;;;;;;42.05;20.15;;;;;;;-3.99;75.32;98030.69;1679449;84;21104;-76
2022/02/04 07:50:05;;;;;;;38.70;20.32;;;;;;;-3.92;75.29;98037.78;1684728;84;21068;-76
2022/02/04 07:52:31;;;;;;;38.90;20.37;;;;;;;-3.84;75.29;98032.83;1679782;84;21001;-76
2022/02/04 07:54:58;;;;;;;41.42;19.75;;;;;;;-3.75;75.02;98033.09;1694481;84;21044;-76
2022/02/04 07:57:24;;;;;;;35.38;19.57;;;;;;;-3.72;74.76;98033.19;1694606;84;21066;-76
2022/02/04 07:59:52;;;;;;;38.08;20.43;;;;;;;-3.69;74.07;98034.09;1695278;84;21029;-77
2022/02/04 08:02:19;;;;;;;37.42;17.95;;;;;;;-3.66;74.20;98031.16;1699370;84;21445;-76
2022/02/04 08:04:47;;;;;;;37.00;19.48;;;;;;;-3.63;74.09;98032.95;1697924;84;21032;-76
2022/02/04 08:07:16;;;;;;;36.40;19.82;;;;;;;-3.59;74.13;98026.63;1699619;84;21489;-76
2022/02/04 08:14:58;;;;;;;37.53;20.02;;;;;;;-3.36;74.48;98030.23;1686040;84;21509;-76
2022/02/04 08:24:57;;;;;;;30.62;17.65;;;;;;;-3.09;73.47;98026.61;1708658;83;21473;-76
2022/02/04 08:35:25;;;;;;;25.72;13.83;;;;;;;-2.95;72.04;98019.61;1704206;83;21041;-76
2022/02/04 08:51:09;;;;;;;32.58;15.83;;;;;;;-2.37;71.08;97994.98;1724002;83;21425;-76
2022/02/04 08:55:58;;;;;;;26.97;14.58;;;;;;;-2.08;71.36;97993.44;1726914;83;21009;-76
2022/02/04 08:58:34;;;;;;;28.60;15.13;;;;;;;-1.97;70.79;97993.63;1696307;83;21457;-77
2022/02/04 09:01:08;;;;;;;27.42;15.40;;;;;;;-1.79;70.76;97997.91;1692267;84;21044;-77
2022/02/04 09:03:50;;;;;;;30.32;15.65;;;;;;;-1.70;68.27;97997.64;1708254;83;21408;-77
2022/02/04 09:06:15;;;;;;;34.65;17.50;;;;;;;-1.63;69.41;97992.59;1723040;82;21666;-77
2022/02/04 09:08:52;;;;;;;32.88;17.98;;;;;;;-1.56;68.27;97995.30;1723020;82;21029;-77
2022/02/04 09:11:28;;;;;;;33.67;15.53;;;;;;;-1.50;68.62;97990.23;1723704;82;21513;-76
2022/02/04 09:19:19;;;;;;;27.35;14.23;;;;;;;-1.05;68.44;97987.55;1693935;85;21004;-76
2022/02/04 09:24:13;;;;;;;24.87;12.93;;;;;;;-0.94;67.25;97990.77;1715289;83;21417;-76
2022/02/04 09:26:41;;;;;;;23.32;11.45;;;;;;;-0.86;66.96;97993.91;1726990;83;21028;-77
2022/02/04 09:29:08;;;;;;;18.80;10.38;;;;;;;-0.78;66.57;97990.13;1726871;83;21027;-77
2022/02/04 09:31:37;;;;;;;18.52;9.88;;;;;;;-0.72;64.59;97991.11;1726837;83;21017;-77
2022/02/04 09:34:05;;;;;;;22.42;10.50;;;;;;;-0.63;65.98;97990.80;1725944;82;21410;-76
2022/02/04 09:36:33;;;;;;;19.50;10.20;;;;;;;-0.53;66.27;97992.69;1724220;83;20984;-77
2022/02/04 09:39:00;;;;;;;22.00;10.05;;;;;;;-0.48;64.24;97995.34;1724658;83;21005;-76
2022/02/04 09:41:28;;;;;;;20.48;11.03;;;;;;;-0.44;65.33;97998.03;1724012;83;21009;-76
2022/02/04 09:43:55;;;;;;;46.35;24.25;;;;;;;-0.36;66.00;97994.23;1724929;83;20999;-76
2022/02/04 09:46:21;;;;;;;18.42;9.98;;;;;;;-0.32;65.14;97988.64;1727027;83;20985;-76
2022/02/04 09:48:54;;;;;;;21.10;9.68;;;;;;;-0.28;65.33;97997.80;1726361;83;21055;-78
2022/02/04 09:51:21;;;;;;;24.60;10.93;;;;;;;-0.20;63.59;97991.84;1721450;83;21068;-78
2022/02/04 10:15:22;;;;;;;18.35;11.18;;;;;;;0.90;59.50;97957.84;1695548;83;21004;-76
2022/02/04 10:18:03;;;;;;;23.73;12.18;;;;;;;0.97;60.97;97960.49;1724914;83;21028;-77
2022/02/04 10:20:32;;;;;;;28.12;13.53;;;;;;;1.09;62.02;97954.08;1726900;83;20989;-76
2022/02/04 10:23:00;;;;;;;26.50;13.15;;;;;;;1.13;60.21;97949.75;1723976;83;21040;-77
2022/02/04 10:25:37;;;;;;;28.52;15.13;;;;;;;1.18;60.71;97939.80;1723889;83;21473;-76
2022/02/04 10:28:08;;;;;;;26.52;14.40;;;;;;;1.26;59.84;97928.52;1700095;83;21076;-76
2022/02/04 10:30:35;;;;;;;28.57;15.23;;;;;;;1.37;60.90;97923.38;1691831;84;21000;-76
2022/02/04 10:33:02;;;;;;;28.27;14.40;;;;;;;1.44;61.12;97929.95;1693893;83;21453;-76
2022/02/04 10:35:36;;;;;;;29.65;15.35;;;;;;;1.54;60.14;97930.00;1695264;85;21059;-76
2022/02/04 10:40:59;;;;;;;28.45;15.90;;;;;;;1.92;61.15;97922.79;1698336;82;21028;-76
2022/02/04 10:46:33;;;;;;;31.77;14.35;;;;;;;2.09;60.46;97911.50;1698167;82;21009;-77
2022/02/04 10:52:10;;;;;;;28.42;16.45;;;;;;;2.15;60.22;97904.13;1721415;83;20988;-76
2022/02/04 10:55:43;;;;;;;32.48;15.88;;;;;;;2.29;60.67;97894.58;1720700;83;21052;-76
2022/02/04 11:00:22;;;;;;;26.60;15.30;;;;;;;2.39;59.90;97888.91;1723361;83;20991;-77
2022/02/04 11:05:42;;;;;;;30.20;15.72;;;;;;;2.94;61.17;97879.78;1722415;83;21434;-77
2022/02/04 11:10:25;;;;;;;25.82;15.15;;;;;;;4.12;56.85;97878.11;1723941;83;21017;-76
2022/02/04 11:35:10;;;;;;;31.77;16.75;;;;;;;3.55;57.25;97858.25;1626247;88;21041;-76
2022/02/04 11:44:13;;;;;;;33.00;16.10;;;;;;;3.21;57.80;97857.03;1673817;85;21028;-77
2022/02/04 11:52:43;;;;;;;29.92;15.65;;;;;;;3.18;57.44;97855.30;1654530;85;21013;-78
2022/02/04 11:55:19;;;;;;;29.57;16.23;;;;;;;3.17;58.56;97852.25;1620629;88;21045;-77
2022/02/04 11:58:42;;;;;;;30.08;15.98;;;;;;;3.13;58.80;97852.70;1619872;89;21033;-76
2022/02/04 12:01:11;;;;;;;24.90;14.93;;;;;;;3.13;59.12;97849.20;1621218;87;21052;-77
2022/02/04 12:03:39;;;;;;;29.48;15.32;;;;;;;3.13;58.54;97842.23;1620588;89;21406;-77
2022/02/04 12:06:05;;;;;;;28.70;15.90;;;;;;;3.03;58.60;97836.13;1621144;87;21487;-77
2022/02/04 12:08:32;;;;;;;26.60;14.93;;;;;;;2.93;58.91;97846.17;1620646;88;21041;-77
2022/02/04 12:11:03;;;;;;;28.90;16.25;;;;;;;2.87;59.29;97846.19;1620589;89;21414;-77
2022/02/04 12:13:30;;;;;;;29.75;15.88;;;;;;;2.80;59.35;97841.39;1622041;87;21566;-76
2022/02/04 12:16:06;;;;;;;26.60;14.78;;;;;;;2.84;59.47;97845.77;1654453;85;21054;-76
2022/02/04 12:18:43;;;;;;;30.27;15.18;;;;;;;2.84;59.53;97847.49;1701957;84;21020;-76
2022/02/04 12:21:12;;;;;;;27.82;15.40;;;;;;;2.91;59.90;97842.70;1702087;84;21024;-76
2022/02/04 12:23:44;;;;;;;25.32;14.23;;;;;;;2.92;59.76;97844.44;1701189;84;21056;-76
2022/02/04 12:26:22;;;;;;;31.33;14.25;;;;;;;2.92;59.48;97847.48;1727076;83;21083;-76
2022/02/04 12:29:12;;;;;;;26.65;14.83;;;;;;;2.92;59.66;97840.94;1726960;83;21027;-77
2022/02/04 12:31:47;;;;;;;26.40;14.30;;;;;;;2.90;59.70;97837.89;1677715;84;21025;-77
2022/02/04 12:34:18;;;;;;;27.55;15.13;;;;;;;2.89;60.48;97838.77;1696621;84;21020;-77
2022/02/04 12:36:55;;;;;;;26.15;14.55;;;;;;;2.96;60.39;97825.66;1696461;85;21040;-77
2022/02/04 12:39:29;;;;;;;24.92;14.30;;;;;;;2.96;59.66;97834.41;1696522;85;20992;-76
2022/02/04 12:42:02;;;;;;;26.25;14.25;;;;;;;2.97;59.87;97830.02;1698931;83;21473;-76
2022/02/04 12:44:40;;;;;;;25.00;14.50;;;;;;;2.98;60.28;97831.33;1696539;85;21056;-76
2022/02/04 12:47:11;;;;;;;25.40;14.13;;;;;;;2.98;59.55;97818.24;1696477;85;21051;-76
2022/02/04 12:49:54;;;;;;;30.43;15.48;;;;;;;2.97;59.49;97816.93;1725305;83;21024;-77
2022/02/04 12:52:42;;;;;;;50.88;28.17;;;;;;;2.93;59.68;97815.19;1690220;84;21032;-77
2022/02/04 12:55:09;;;;;;;29.25;16.65;;;;;;;2.95;59.86;97810.38;1689313;84;21005;-77
2022/02/04 12:57:43;;;;;;;28.12;13.88;;;;;;;2.95;59.58;97805.60;1688992;84;21057;-77
2022/02/04 13:03:21;;;;;;;27.35;14.28;;;;;;;2.99;59.77;97797.72;1672625;85;21064;-76
2022/02/04 13:08:45;;;;;;;24.90;13.65;;;;;;;3.16;59.47;97779.81;1727035;83;20985;-76
2022/02/04 13:11:13;;;;;;;24.50;12.65;;;;;;;3.36;59.44;97783.64;1726452;83;21488;-76
2022/02/04 13:13:50;;;;;;;24.70;13.13;;;;;;;3.80;58.27;97780.81;1725274;83;20973;-75
2022/02/04 13:16:24;;;;;;;21.82;12.93;;;;;;;4.09;58.28;97777.14;1668281;84;21073;-76
2022/02/04 13:18:52;;;;;;;22.15;12.50;;;;;;;4.80;56.50;97774.80;1671206;84;21006;-77
2022/02/04 13:21:20;;;;;;;22.75;13.50;;;;;;;5.25;54.44;97767.75;1669482;86;21061;-77
2022/02/04 13:23:47;;;;;;;22.48;13.90;;;;;;;5.35;53.73;97765.44;1680366;84;21048;-77
2022/02/04 13:26:14;;;;;;;27.32;13.53;;;;;;;5.49;53.92;97763.94;1726854;83;21093;-77
2022/02/04 13:28:44;;;;;;;27.30;13.68;;;;;;;5.79;54.37;97747.78;1727037;83;21059;-77
2022/02/04 13:31:13;;;;;;;22.58;12.78;;;;;;;6.11;52.41;97742.97;1699950;83;21024;-77
2022/02/04 13:33:44;;;;;;;21.48;12.07;;;;;;;6.28;51.55;97739.63;1693642;85;21059;-77
2022/02/04 13:39:48;;;;;;;18.32;11.40;;;;;;;6.44;51.65;97730.16;1690066;84;21800;-84
2022/02/04 13:42:24;;;;;;;23.50;15.03;;;;;;;6.37;50.27;97722.81;1717885;83;21422;-84
2022/02/04 13:45:08;;;;;;;29.40;14.03;;;;;;;6.27;48.57;97715.97;1722821;81;21453;-83
2022/02/04 13:47:44;;;;;;;20.10;12.30;;;;;;;6.17;50.21;97721.37;1697349;83;21075;-83
2022/02/04 13:55:28;;;;;;;19.45;11.57;;;;;;;5.79;50.30;97720.17;1703161;83;20964;-84
2022/02/04 14:00:53;;;;;;;25.82;12.50;;;;;;;5.44;51.41;97712.34;1718008;82;21051;-83
2022/02/04 14:03:23;;;;;;;22.87;11.77;;;;;;;5.33;51.10;97717.30;1720471;82;21437;-84
2022/02/04 14:05:59;;;;;;;21.48;11.75;;;;;;;5.20;51.40;97717.02;1718569;82;21017;-85
2022/02/04 14:08:34;;;;;;;18.12;11.85;;;;;;;5.17;51.78;97713.11;1719381;83;21452;-83
2022/02/04 14:10:59;;;;;;;20.23;12.30;;;;;;;5.06;51.09;97716.73;1716818;83;21044;-84
2022/02/04 14:13:27;;;;;;;18.98;11.85;;;;;;;4.96;52.00;97709.42;1699055;82;21036;-83
2022/02/04 14:15:59;;;;;;;17.05;10.78;;;;;;;4.87;51.95;97715.63;1693544;85;21493;-83
2022/02/04 14:18:29;;;;;;;22.95;12.07;;;;;;;4.70;52.00;97711.02;1708267;83;21489;-84
2022/02/04 14:20:56;;;;;;;24.57;12.88;;;;;;;4.60;52.81;97709.80;1688920;84;21025;-84
2022/02/04 14:23:24;;;;;;;28.42;14.58;;;;;;;4.53;53.53;97711.19;1674162;86;21522;-83
2022/02/04 14:26:02;;;;;;;28.27;13.80;;;;;;;4.39;54.38;97705.63;1676659;85;21085;-84
2022/02/04 14:28:48;;;;;;;24.02;12.47;;;;;;;4.19;55.21;97698.81;1679841;84;21040;-83
2022/02/04 14:36:21;;;;;;;27.87;17.90;;;;;;;3.81;56.34;97699.97;1702526;84;21020;-85
2022/02/04 14:52:26;;;;;;;23.40;13.98;;;;;;;3.19;59.08;97691.19;1672726;86;21002;-83
2022/02/04 14:58:40;;;;;;;28.40;14.73;;;;;;;3.04;59.23;97699.55;1671778;86;21076;-84
2022/02/04 15:00:15;;;;;;;30.45;14.95;;;;;;;2.80;60.44;97701.38;1686776;84;21040;-84
2022/02/04 15:02:27;;;;;;;27.48;14.75;;;;;;;2.74;60.49;97702.25;1616655;89;21478;-84
2022/02/04 15:04:51;;;;;;;30.90;17.23;;;;;;;2.64;61.21;97707.97;1672097;85;21056;-85
2022/02/04 15:07:19;;;;;;;26.15;14.60;;;;;;;2.52;61.03;97701.89;1673197;85;21083;-85
2022/02/04 15:09:55;;;;;;;32.15;15.30;;;;;;;2.37;61.82;97705.81;1688516;84;21005;-85
2022/02/04 15:12:21;;;;;;;;;;;;;;;2.22;62.85;97701.92;1690779;84;20986;-85
2022/02/04 15:14:48;;;;;;;27.25;15.43;;;;;;;2.09;62.00;97702.36;1688531;84;20102;-83
2022/02/04 15:17:14;;;;;;;29.30;14.70;;;;;;;1.98;62.94;97706.27;1688565;84;21077;-84
2022/02/04 15:19:43;;;;;;;25.27;14.75;;;;;;;1.89;62.92;97706.27;1650960;86;21042;-84
2022/02/04 15:22:11;;;;;;;29.80;15.95;;;;;;;1.80;62.80;97700.19;1687218;84;21155;-84
2022/02/04 15:24:38;;;;;;;27.42;15.83;;;;;;;1.69;63.44;97701.48;1721282;83;21048;-84
2022/02/04 15:27:06;;;;;;;35.52;18.02;;;;;;;1.60;63.47;97697.54;1716314;83;21434;-84
2022/02/04 15:29:37;;;;;;;101.75;50.50;;;;;;;1.53;63.18;97703.64;1717793;82;21048;-84
2022/02/04 15:32:02;;;;;;;56.58;29.07;;;;;;;1.43;65.06;97700.12;1719870;83;21032;-84
2022/02/04 15:34:30;;;;;;;45.52;21.90;;;;;;;1.36;64.91;97697.92;1695026;82;21036;-83
2022/02/04 15:36:57;;;;;;;40.98;19.37;;;;;;;1.29;65.47;97703.56;1696452;83;21529;-83
2022/02/04 15:39:27;;;;;;;39.58;18.12;;;;;;;1.26;65.00;97710.09;1711658;83;20993;-84
2022/02/04 15:41:56;;;;;;;31.40;15.32;;;;;;;1.20;65.15;97704.83;1693992;83;21047;-84
2022/02/04 15:44:36;;;;;;;32.70;16.27;;;;;;;1.14;65.31;97707.01;1725070;83;20998;-84
2022/02/04 15:49:45;;;;;;;33.20;16.20;;;;;;;0.96;66.34;97697.38;1728913;83;21023;-84
2022/02/04 15:54:45;;;;;;;52.33;23.92;;;;;;;0.78;67.66;97694.23;1697131;83;21048;-83
2022/02/04 15:59:58;;;;;;;40.92;18.95;;;;;;;0.63;67.90;97703.72;1732223;83;21001;-85
2022/02/04 16:02:34;;;;;;;38.80;18.20;;;;;;;0.55;66.87;97701.52;1722290;82;21016;-85
2022/02/04 16:04:49;;;;;;;39.10;18.05;;;;;;;0.47;69.12;97703.20;1721810;83;21108;-84
2022/02/04 16:07:17;;;;;;;37.65;17.67;;;;;;;0.41;67.66;97698.81;1724068;83;21004;-84
2022/02/04 16:09:50;;;;;;;43.78;21.82;;;;;;;0.34;67.75;97704.41;1723971;83;21020;-83
2022/02/04 16:12:22;;;;;;;46.55;23.47;;;;;;;0.29;69.54;97696.14;1718277;83;21004;-84
2022/02/04 16:14:54;;;;;;;41.77;18.00;;;;;;;0.24;68.08;97694.38;1707848;83;21004;-84
2022/02/04 16:17:25;;;;;;;37.10;18.95;;;;;;;0.18;69.01;97696.95;1720614;82;21016;-84
2022/02/04 16:19:47;;;;;;;38.17;18.05;;;;;;;0.13;69.35;97693.44;1703146;82;20993;-84
2022/02/04 16:25:08;;;;;;;38.98;18.98;;;;;;;0.01;68.59;97699.42;1687515;84;21064;-84
2022/02/04 16:29:54;;;;;;;41.28;17.90;;;;;;;-0.07;68.88;97706.30;1695945;84;21001;-83
2022/02/04 16:32:21;;;;;;;42.60;18.77;;;;;;;-0.16;69.32;97707.09;1696228;84;20977;-83
2022/02/04 16:34:53;;;;;;;45.60;22.07;;;;;;;-0.20;71.02;97707.48;1690491;84;21029;-83
2022/02/04 16:37:18;;;;;;;47.85;21.82;;;;;;;-0.25;69.51;97700.05;1695470;84;21056;-83
2022/02/04 16:39:46;;;;;;;40.33;20.15;;;;;;;-0.29;69.26;97704.82;1697740;84;20981;-84
2022/02/04 16:42:15;;;;;;;37.15;19.90;;;;;;;-0.33;69.36;97706.50;1684686;84;21060;-83
2022/02/04 16:44:42;;;;;;;45.58;22.35;;;;;;;-0.41;69.37;97702.97;1660410;86;21045;-84
2022/02/04 16:47:09;;;;;;;39.30;20.65;;;;;;;-0.43;69.21;97700.77;1681044;84;21080;-84
2022/02/04 16:49:37;;;;;;;49.15;22.05;;;;;;;-0.48;69.19;97707.24;1679002;85;21044;-84
2022/02/04 16:52:06;;;;;;;47.65;21.48;;;;;;;-0.55;69.30;97697.19;1679094;85;21025;-83
2022/02/04 16:54:34;;;;;;;49.25;21.68;;;;;;;-0.59;69.52;97695.83;1692808;85;21035;-84
2022/02/04 16:57:02;;;;;;;39.25;19.32;;;;;;;-0.65;70.05;97693.17;1697203;85;21012;-84
2022/02/04 16:59:30;;;;;;;43.87;20.30;;;;;;;-0.69;70.12;97699.66;1690365;84;21033;-84
2022/02/04 17:01:58;;;;;;;35.78;19.50;;;;;;;-0.69;69.88;97697.48;1683367;84;21056;-84